createdAt,value
2022-08-16T00:01:21.764Z,19.40
2022-08-16T00:03:53.646Z,19.40
2022-08-16T00:06:21.436Z,19.50
2022-08-16T00:08:49.533Z,19.50
2022-08-16T00:11:16.587Z,19.50
2022-08-16T00:13:53.451Z,19.50
2022-08-16T00:17:00.657Z,19.50
2022-08-16T00:19:14.909Z,19.50
2022-08-16T00:21:43.612Z,19.50
2022-08-16T00:24:12.528Z,19.40
2022-08-16T00:26:44.111Z,19.40
2022-08-16T00:29:15.388Z,19.50
2022-08-16T00:31:58.792Z,19.40
2022-08-16T00:34:45.193Z,19.40
2022-08-16T00:37:17.315Z,19.40
2022-08-16T00:39:47.239Z,19.40
2022-08-16T00:42:14.760Z,19.30
2022-08-16T00:45:08.369Z,19.30
2022-08-16T00:47:39.285Z,19.30
2022-08-16T00:50:11.441Z,19.30
2022-08-16T00:52:50.562Z,19.30
2022-08-16T00:55:22.477Z,19.30
2022-08-16T00:57:58.881Z,19.30
2022-08-16T01:00:29.811Z,19.30
2022-08-16T01:02:59.523Z,19.30
2022-08-16T01:05:27.309Z,19.30
2022-08-16T01:07:54.976Z,19.30
2022-08-16T01:10:31.307Z,19.30
2022-08-16T01:13:02.169Z,19.20
2022-08-16T01:15:31.894Z,19.20
2022-08-16T01:18:00.165Z,19.20
2022-08-16T01:20:30.587Z,19.20
2022-08-16T01:23:24.102Z,19.20
2022-08-16T01:25:59.694Z,19.20
2022-08-16T01:28:45.577Z,19.20
2022-08-16T01:31:14.541Z,19.20
2022-08-16T01:33:44.641Z,19.20
2022-08-16T01:36:13.118Z,19.20
2022-08-16T01:38:49.265Z,19.20
2022-08-16T01:41:26.556Z,19.20
2022-08-16T01:43:56.909Z,19.20
2022-08-16T01:46:39.109Z,19.10
2022-08-16T01:49:43.483Z,19.10
2022-08-16T01:52:29.619Z,19.10
2022-08-16T01:54:58.001Z,19.10
2022-08-16T01:57:27.211Z,19.00
2022-08-16T01:59:54.605Z,19.10
2022-08-16T02:02:28.357Z,19.10
2022-08-16T02:04:56.273Z,19.00
2022-08-16T02:07:24.532Z,19.10
2022-08-16T02:09:58.333Z,19.10
2022-08-16T02:12:39.770Z,19.10
2022-08-16T02:15:17.528Z,19.00
2022-08-16T02:17:52.537Z,19.00
2022-08-16T02:20:19.722Z,19.00
2022-08-16T02:22:55.171Z,19.00
2022-08-16T02:25:22.325Z,19.00
2022-08-16T02:27:51.095Z,18.90
2022-08-16T02:30:37.590Z,18.90
2022-08-16T02:33:11.365Z,18.90
2022-08-16T02:35:49.911Z,18.90
2022-08-16T02:38:21.955Z,18.90
2022-08-16T02:40:48.871Z,18.90
2022-08-16T02:43:15.937Z,18.90
2022-08-16T02:45:42.971Z,18.90
2022-08-16T02:48:29.482Z,18.90
2022-08-16T02:51:06.279Z,18.90
2022-08-16T02:53:43.107Z,18.90
2022-08-16T02:56:15.168Z,18.90
2022-08-16T02:58:44.124Z,18.90
2022-08-16T03:01:24.404Z,18.90
2022-08-16T03:04:29.816Z,18.90
2022-08-16T03:06:50.490Z,18.90
2022-08-16T03:09:22.849Z,18.80
2022-08-16T03:11:50.056Z,18.80
2022-08-16T03:14:21.187Z,18.80
2022-08-16T03:16:59.764Z,18.90
2022-08-16T03:19:48.268Z,18.90
2022-08-16T03:22:28.273Z,18.90
2022-08-16T03:24:58.985Z,18.90
2022-08-16T03:27:30.713Z,18.90
2022-08-16T03:30:16.179Z,18.90
2022-08-16T03:32:47.459Z,18.90
2022-08-16T03:35:15.085Z,18.90
2022-08-16T03:38:01.803Z,18.90
2022-08-16T03:40:32.900Z,18.90
2022-08-16T03:43:20.259Z,18.90
2022-08-16T03:45:47.034Z,18.90
2022-08-16T03:48:15.069Z,18.90
2022-08-16T03:51:00.145Z,18.90
2022-08-16T03:53:37.890Z,19.00
2022-08-16T03:56:07.342Z,19.00
2022-08-16T03:58:37.046Z,19.00
2022-08-16T04:01:05.082Z,19.00
2022-08-16T04:03:32.637Z,19.00
2022-08-16T04:05:59.940Z,19.10
2022-08-16T04:08:31.185Z,19.10
2022-08-16T04:10:58.321Z,19.10
2022-08-16T04:14:00.368Z,19.10
2022-08-16T04:16:27.580Z,19.10
2022-08-16T04:19:02.422Z,19.10
2022-08-16T04:21:32.624Z,19.10
2022-08-16T04:24:00.093Z,19.10
2022-08-16T04:26:30.591Z,19.10
2022-08-16T04:29:16.703Z,19.10
2022-08-16T04:31:47.133Z,19.10
2022-08-16T04:34:27.387Z,19.20
2022-08-16T04:36:54.929Z,19.20
2022-08-16T04:39:24.293Z,19.30
2022-08-16T04:41:57.106Z,19.30
2022-08-16T04:44:52.904Z,19.30
2022-08-16T04:47:21.640Z,19.30
2022-08-16T04:49:52.313Z,19.30
2022-08-16T04:52:35.074Z,19.30
2022-08-16T04:55:05.975Z,19.30
2022-08-16T04:57:32.637Z,19.30
2022-08-16T04:59:59.361Z,19.30
2022-08-16T05:02:49.033Z,19.40
2022-08-16T05:05:23.165Z,19.50
2022-08-16T05:07:58.357Z,19.50
2022-08-16T05:10:28.085Z,19.50
2022-08-16T05:13:00.623Z,19.60
2022-08-16T05:15:28.027Z,19.60
2022-08-16T05:17:58.854Z,19.60
2022-08-16T05:20:38.993Z,19.70
2022-08-16T05:23:15.117Z,19.70
2022-08-16T05:25:48.209Z,19.80
2022-08-16T05:28:17.369Z,19.80
2022-08-16T05:30:50.307Z,19.90
2022-08-16T05:33:18.326Z,20.00
2022-08-16T05:35:54.889Z,20.00
2022-08-16T05:38:32.407Z,20.10
2022-08-16T05:41:07.273Z,20.20
2022-08-16T05:43:43.309Z,20.40
2022-08-16T05:46:29.548Z,20.50
2022-08-16T05:49:03.721Z,20.70
2022-08-16T05:51:38.135Z,20.80
2022-08-16T05:54:07.871Z,21.00
2022-08-16T05:56:37.973Z,21.30
2022-08-16T05:59:06.123Z,21.60
2022-08-16T06:01:38.432Z,21.80
2022-08-16T06:04:13.259Z,22.10
2022-08-16T06:06:57.811Z,22.10
2022-08-16T06:09:43.758Z,22.20
2022-08-16T06:12:26.889Z,22.50
2022-08-16T06:15:04.253Z,23.00
2022-08-16T06:17:41.535Z,23.30
2022-08-16T06:20:23.975Z,23.30
2022-08-16T06:23:03.699Z,23.20
2022-08-16T06:25:52.948Z,23.00
2022-08-16T06:28:35.057Z,22.80
2022-08-16T06:31:06.703Z,22.60
2022-08-16T06:33:41.121Z,22.50
2022-08-16T06:36:09.865Z,22.30
2022-08-16T06:38:38.169Z,22.20
2022-08-16T06:41:22.198Z,22.10
2022-08-16T06:43:51.177Z,22.00
2022-08-16T06:46:31.915Z,21.90
2022-08-16T06:48:59.638Z,22.00
2022-08-16T06:51:46.612Z,22.00
2022-08-16T06:54:13.962Z,22.00
2022-08-16T06:56:42.370Z,22.10
2022-08-16T06:59:10.275Z,22.10
2022-08-16T07:01:43.124Z,22.10
2022-08-16T07:04:12.234Z,22.20
2022-08-16T07:06:43.145Z,22.30
2022-08-16T07:09:11.394Z,22.30
2022-08-16T07:11:45.526Z,22.40
2022-08-16T07:14:24.462Z,22.40
2022-08-16T07:16:54.043Z,22.40
2022-08-16T07:19:21.498Z,22.50
2022-08-16T07:21:59.319Z,22.50
2022-08-16T07:24:30.356Z,22.60
2022-08-16T07:27:00.577Z,22.70
2022-08-16T07:29:31.485Z,22.80
2022-08-16T07:32:00.672Z,22.80
2022-08-16T07:34:35.871Z,22.90
2022-08-16T07:37:10.698Z,22.90
2022-08-16T07:39:43.369Z,22.90
2022-08-16T07:42:20.086Z,22.90
2022-08-16T07:44:52.589Z,23.00
2022-08-16T07:47:20.065Z,22.90
2022-08-16T07:49:53.404Z,22.80
2022-08-16T07:52:29.845Z,22.80
2022-08-16T07:54:57.579Z,22.80
2022-08-16T07:57:24.854Z,22.80
2022-08-16T07:59:52.126Z,22.90
2022-08-16T08:02:20.396Z,22.90
2022-08-16T08:04:48.259Z,23.00
2022-08-16T08:07:16.363Z,23.00
2022-08-16T08:09:43.966Z,23.10
2022-08-16T08:12:32.640Z,23.20
2022-08-16T08:14:58.266Z,23.30
2022-08-16T08:17:43.037Z,23.40
2022-08-16T08:20:26.071Z,23.40
2022-08-16T08:23:00.584Z,23.60
2022-08-16T08:25:54.537Z,23.60
2022-08-16T08:28:19.952Z,23.70
2022-08-16T08:30:51.075Z,23.80
2022-08-16T08:33:28.929Z,23.80
2022-08-16T08:35:57.709Z,23.90
2022-08-16T08:38:44.260Z,23.90
2022-08-16T08:41:15.175Z,24.00
2022-08-16T08:43:42.913Z,24.10
2022-08-16T08:46:17.754Z,24.10
2022-08-16T08:48:46.358Z,24.20
2022-08-16T08:51:27.719Z,24.30
2022-08-16T08:54:06.843Z,24.40
2022-08-16T08:56:37.669Z,24.50
2022-08-16T08:59:19.873Z,24.50
2022-08-16T09:01:56.523Z,24.80
2022-08-16T09:04:26.012Z,25.00
2022-08-16T09:06:53.799Z,25.30
2022-08-16T09:09:21.353Z,25.60
2022-08-16T09:11:53.456Z,25.80
2022-08-16T09:14:31.499Z,26.20
2022-08-16T09:17:03.286Z,26.60
2022-08-16T09:19:40.789Z,27.60
2022-08-16T09:22:19.978Z,29.50
2022-08-16T09:24:53.555Z,30.50
2022-08-16T09:27:25.348Z,31.90
2022-08-16T09:30:00.041Z,32.80
2022-08-16T09:32:30.470Z,34.00
2022-08-16T09:34:58.810Z,35.20
2022-08-16T09:37:29.212Z,36.30
2022-08-16T09:39:59.682Z,37.10
2022-08-16T09:42:28.857Z,37.90
2022-08-16T09:45:12.407Z,38.40
2022-08-16T09:47:57.224Z,38.70
2022-08-16T09:50:37.003Z,38.70
2022-08-16T09:53:19.056Z,38.40
2022-08-16T09:55:50.050Z,38.10
2022-08-16T09:58:41.727Z,37.10
2022-08-16T10:01:06.388Z,36.60
2022-08-16T10:03:35.298Z,36.40
2022-08-16T10:06:02.015Z,36.10
2022-08-16T10:08:28.599Z,36.10
2022-08-16T10:11:14.042Z,36.20
2022-08-16T10:13:43.702Z,36.30
2022-08-16T10:19:01.866Z,36.40
2022-08-16T10:21:29.317Z,36.60
2022-08-16T10:23:58.828Z,36.60
2022-08-16T10:27:19.265Z,36.60
2022-08-16T10:29:12.542Z,36.50
2022-08-16T10:31:53.811Z,36.20
2022-08-16T10:34:31.258Z,35.90
2022-08-16T10:37:00.785Z,36.20
2022-08-16T10:39:40.608Z,36.80
2022-08-16T10:42:09.256Z,37.40
2022-08-16T10:44:36.387Z,37.80
2022-08-16T10:47:05.801Z,37.70
2022-08-16T10:49:32.833Z,37.50
2022-08-16T10:52:02.587Z,37.20
2022-08-16T10:55:40.959Z,36.50
2022-08-16T10:57:43.209Z,36.10
2022-08-16T11:00:21.127Z,36.20
2022-08-16T11:02:57.955Z,36.00
2022-08-16T11:08:35.916Z,35.60
2022-08-16T11:11:10.591Z,35.80
2022-08-16T11:19:20.309Z,35.60
2022-08-16T11:24:44.655Z,34.50
2022-08-16T11:27:23.937Z,34.10
2022-08-16T11:30:00.033Z,33.50
2022-08-16T11:32:31.442Z,32.60
2022-08-16T11:35:10.872Z,32.10
2022-08-16T11:40:32.475Z,31.50
2022-08-16T11:43:01.373Z,31.50
2022-08-16T11:45:31.533Z,31.70
2022-08-16T11:48:01.645Z,32.40
2022-08-16T11:50:28.805Z,33.00
2022-08-16T11:52:55.465Z,33.30
2022-08-16T11:55:23.664Z,33.20
2022-08-16T11:57:51.556Z,32.80
2022-08-16T12:00:50.228Z,32.50
2022-08-16T12:03:11.668Z,32.80
2022-08-16T12:05:40.429Z,33.30
2022-08-16T12:08:08.975Z,34.00
2022-08-16T12:10:38.897Z,34.30
2022-08-16T12:13:07.255Z,34.20
2022-08-16T12:15:37.913Z,34.40
2022-08-16T12:18:06.792Z,35.00
2022-08-16T12:20:38.724Z,35.60
2022-08-16T12:23:06.786Z,35.80
2022-08-16T12:25:35.319Z,35.60
2022-08-16T12:28:04.281Z,34.90
2022-08-16T12:30:38.544Z,34.50
2022-08-16T12:33:07.685Z,34.30
2022-08-16T12:35:36.484Z,34.30
2022-08-16T12:38:35.783Z,34.30
2022-08-16T12:40:57.121Z,34.40
2022-08-16T12:43:25.250Z,34.60
2022-08-16T12:45:55.252Z,34.60
2022-08-16T12:48:44.319Z,34.60
2022-08-16T12:51:19.899Z,34.70
2022-08-16T12:53:53.421Z,34.40
2022-08-16T12:56:25.399Z,34.30
2022-08-16T12:58:53.230Z,34.30
2022-08-16T13:01:34.113Z,34.40
2022-08-16T13:04:11.958Z,34.40
2022-08-16T13:06:48.507Z,34.50
2022-08-16T13:09:23.072Z,34.60
2022-08-16T13:12:15.778Z,34.70
2022-08-16T13:14:44.680Z,34.70
2022-08-16T13:17:18.803Z,34.80
2022-08-16T13:22:33.934Z,34.50
2022-08-16T13:25:00.832Z,34.60
2022-08-16T13:28:03.171Z,34.70
2022-08-16T13:30:35.357Z,34.70
2022-08-16T13:33:01.171Z,34.60
2022-08-16T13:35:34.546Z,34.50
2022-08-16T13:38:01.678Z,34.40
2022-08-16T13:40:30.213Z,34.50
2022-08-16T13:42:57.028Z,34.50
2022-08-16T13:45:23.670Z,34.40
2022-08-16T13:47:52.931Z,34.50
2022-08-16T13:50:31.255Z,34.40
2022-08-16T13:53:07.292Z,34.00
2022-08-16T13:55:34.636Z,33.40
2022-08-16T13:58:36.282Z,32.90
2022-08-16T14:00:52.693Z,32.40
2022-08-16T14:03:21.517Z,32.00
2022-08-16T14:05:52.569Z,31.60
2022-08-16T14:08:21.814Z,31.30
2022-08-16T14:10:52.157Z,31.00
2022-08-16T14:13:21.185Z,30.90
2022-08-16T14:15:48.656Z,30.80
2022-08-16T14:18:17.586Z,30.80
2022-08-16T14:20:48.423Z,31.00
2022-08-16T14:23:15.740Z,31.20
2022-08-16T14:25:42.744Z,31.30
2022-08-16T14:28:20.501Z,31.40
2022-08-16T14:30:50.645Z,31.60
2022-08-16T14:33:18.284Z,31.90
2022-08-16T14:35:49.398Z,32.30
2022-08-16T14:38:19.075Z,32.60
2022-08-16T14:40:55.179Z,32.80
2022-08-16T14:43:22.974Z,32.90
2022-08-16T14:45:50.418Z,32.90
2022-08-16T14:48:23.047Z,32.90
2022-08-16T14:50:52.518Z,32.90
2022-08-16T14:53:19.129Z,32.80
2022-08-16T14:55:46.084Z,32.70
2022-08-16T14:58:19.580Z,32.60
2022-08-16T15:00:50.463Z,32.50
2022-08-16T15:03:21.701Z,32.50
2022-08-16T15:05:49.701Z,32.50
2022-08-16T15:08:20.785Z,32.50
2022-08-16T15:10:47.902Z,32.40
2022-08-16T15:13:15.326Z,32.30
2022-08-16T15:15:43.391Z,32.20
2022-08-16T15:18:12.073Z,32.20
2022-08-16T15:20:41.037Z,32.00
2022-08-16T15:23:09.124Z,31.90
2022-08-16T15:25:41.527Z,31.80
2022-08-16T15:28:23.395Z,31.70
2022-08-16T15:31:00.332Z,31.60
2022-08-16T15:33:30.025Z,31.40
2022-08-16T15:35:59.891Z,31.40
2022-08-16T15:38:55.029Z,31.20
2022-08-16T15:41:38.070Z,31.10
2022-08-16T15:44:10.436Z,30.90
2022-08-16T15:46:56.371Z,30.80
2022-08-16T15:49:37.273Z,30.70
2022-08-16T15:52:24.994Z,30.60
2022-08-16T15:54:57.284Z,30.50
2022-08-16T15:57:26.100Z,30.40
2022-08-16T15:59:57.753Z,30.40
2022-08-16T16:02:31.753Z,30.30
2022-08-16T16:05:07.077Z,30.20
2022-08-16T16:07:40.676Z,30.20
2022-08-16T16:10:22.977Z,30.10
2022-08-16T16:12:57.970Z,29.90
2022-08-16T16:15:30.238Z,29.70
2022-08-16T16:17:57.742Z,29.60
2022-08-16T16:20:27.960Z,29.50
2022-08-16T16:22:59.557Z,29.50
2022-08-16T16:25:27.374Z,29.60
2022-08-16T16:27:59.711Z,29.70
2022-08-16T16:30:37.613Z,29.80
2022-08-16T16:33:15.484Z,29.90
2022-08-16T16:35:48.117Z,29.90
2022-08-16T16:38:29.956Z,29.90
2022-08-16T16:41:02.469Z,29.80
2022-08-16T16:43:31.675Z,29.70
2022-08-16T16:45:59.117Z,29.60
2022-08-16T16:48:29.704Z,29.40
2022-08-16T16:51:08.690Z,29.20
2022-08-16T16:53:41.928Z,29.00
2022-08-16T16:56:19.563Z,28.90
2022-08-16T16:58:57.109Z,28.80
2022-08-16T17:01:56.633Z,28.70
2022-08-16T17:04:31.943Z,28.60
2022-08-16T17:07:01.417Z,28.50
2022-08-16T17:09:28.419Z,28.40
2022-08-16T17:11:56.586Z,28.20
2022-08-16T17:14:33.359Z,28.10
2022-08-16T17:17:04.088Z,28.00
2022-08-16T17:19:31.677Z,27.90
2022-08-16T17:21:59.149Z,27.90
2022-08-16T17:24:31.962Z,27.80
2022-08-16T17:27:07.596Z,27.70
2022-08-16T17:29:35.010Z,27.70
2022-08-16T17:32:33.625Z,27.60
2022-08-16T17:35:01.751Z,27.60
2022-08-16T17:37:42.508Z,27.50
2022-08-16T17:40:25.409Z,27.40
2022-08-16T17:43:05.441Z,27.30
2022-08-16T17:45:33.145Z,27.20
2022-08-16T17:48:00.799Z,27.10
2022-08-16T17:50:28.917Z,27.00
2022-08-16T17:52:57.218Z,26.90
2022-08-16T17:55:27.314Z,26.80
2022-08-16T17:57:54.033Z,26.70
2022-08-16T18:00:21.892Z,26.70
2022-08-16T18:02:50.220Z,26.60
2022-08-16T18:05:18.217Z,26.60
2022-08-16T18:07:45.131Z,26.60
2022-08-16T18:10:12.207Z,26.60
2022-08-16T18:12:55.150Z,26.40
2022-08-16T18:15:24.109Z,26.30
2022-08-16T18:17:53.067Z,26.10
2022-08-16T18:20:45.402Z,25.90
2022-08-16T18:23:19.198Z,25.80
2022-08-16T18:25:53.867Z,25.70
2022-08-16T18:28:21.221Z,25.50
2022-08-16T18:30:51.624Z,25.40
2022-08-16T18:33:21.431Z,25.30
2022-08-16T18:35:48.522Z,25.30
2022-08-16T18:38:15.376Z,25.20
2022-08-16T18:40:42.993Z,25.10
2022-08-16T18:43:13.773Z,25.00
2022-08-16T18:45:42.882Z,24.90
2022-08-16T18:48:11.341Z,24.80
2022-08-16T18:50:59.650Z,24.60
2022-08-16T18:53:28.564Z,24.50
2022-08-16T18:55:58.208Z,24.50
2022-08-16T18:58:25.975Z,24.50
2022-08-16T19:00:56.485Z,24.30
2022-08-16T19:03:27.758Z,24.30
2022-08-16T19:06:11.283Z,24.20
2022-08-16T19:08:40.238Z,24.10
2022-08-16T19:11:09.205Z,24.10
2022-08-16T19:13:36.261Z,24.00
2022-08-16T19:16:04.104Z,23.90
2022-08-16T19:18:36.674Z,23.90
2022-08-16T19:21:05.161Z,23.70
2022-08-16T19:23:34.467Z,23.70
2022-08-16T19:26:06.796Z,23.60
2022-08-16T19:28:59.673Z,23.50
2022-08-16T19:31:33.368Z,23.50
2022-08-16T19:34:00.840Z,23.40
2022-08-16T19:36:35.837Z,23.40
2022-08-16T19:39:09.386Z,23.30
2022-08-16T19:41:38.633Z,23.20
2022-08-16T19:44:05.895Z,23.10
2022-08-16T19:46:32.648Z,23.00
2022-08-16T19:48:59.826Z,23.00
2022-08-16T19:51:26.584Z,23.00
2022-08-16T19:53:53.257Z,22.90
2022-08-16T19:56:22.231Z,22.90
2022-08-16T19:59:16.413Z,22.80
2022-08-16T20:01:41.668Z,22.70
2022-08-16T20:04:11.810Z,22.60
2022-08-16T20:06:38.992Z,22.50
2022-08-16T20:09:06.433Z,22.50
2022-08-16T20:11:34.118Z,22.30
2022-08-16T20:14:00.722Z,22.30
2022-08-16T20:16:27.334Z,22.30
2022-08-16T20:18:53.944Z,22.30
2022-08-16T20:21:20.643Z,22.30
2022-08-16T20:23:47.260Z,22.20
2022-08-16T20:26:13.896Z,22.10
2022-08-16T20:28:54.144Z,22.10
2022-08-16T20:31:22.870Z,22.10
2022-08-16T20:33:50.181Z,22.00
2022-08-16T20:36:17.088Z,22.00
2022-08-16T20:38:46.727Z,21.90
2022-08-16T20:41:13.911Z,21.90
2022-08-16T20:43:40.707Z,21.80
2022-08-16T20:46:07.555Z,21.80
2022-08-16T20:48:34.168Z,21.80
2022-08-16T20:51:00.774Z,21.80
2022-08-16T20:53:27.382Z,21.90
2022-08-16T20:55:54.252Z,21.80
2022-08-16T20:58:20.839Z,21.80
2022-08-16T21:00:47.642Z,21.70
2022-08-16T21:03:14.441Z,21.70
2022-08-16T21:05:41.218Z,21.70
2022-08-16T21:08:52.636Z,21.70
2022-08-16T21:10:56.425Z,21.60
2022-08-16T21:13:30.551Z,21.50
2022-08-16T21:15:58.421Z,21.50
2022-08-16T21:18:25.525Z,21.40
2022-08-16T21:20:52.791Z,21.40
2022-08-16T21:23:19.475Z,21.30
2022-08-16T21:25:51.217Z,21.30
2022-08-16T21:28:40.070Z,21.20
2022-08-16T21:31:09.486Z,21.20
2022-08-16T21:33:36.393Z,21.10
2022-08-16T21:36:03.273Z,21.10
2022-08-16T21:38:31.111Z,21.00
2022-08-16T21:40:59.285Z,21.00
2022-08-16T21:43:28.570Z,20.90
2022-08-16T21:45:55.808Z,20.90
2022-08-16T21:48:34.165Z,20.90
2022-08-16T21:51:09.739Z,20.90
2022-08-16T21:53:37.719Z,20.80
2022-08-16T21:56:06.178Z,20.80
2022-08-16T21:58:33.237Z,20.70
2022-08-16T22:01:01.278Z,20.70
2022-08-16T22:03:32.650Z,20.70
2022-08-16T22:06:14.132Z,20.70
2022-08-16T22:08:49.643Z,20.60
2022-08-16T22:11:23.030Z,20.60
2022-08-16T22:13:57.298Z,20.60
2022-08-16T22:16:26.073Z,20.50
2022-08-16T22:18:52.790Z,20.50
2022-08-16T22:21:19.986Z,20.40
2022-08-16T22:23:57.105Z,20.30
2022-08-16T22:26:29.126Z,20.30
2022-08-16T22:29:02.094Z,20.20
2022-08-16T22:31:29.151Z,20.20
2022-08-16T22:33:56.680Z,20.20
2022-08-16T22:36:23.694Z,20.20
2022-08-16T22:38:59.406Z,20.10
2022-08-16T22:41:28.308Z,20.10
2022-08-16T22:43:55.012Z,20.10
2022-08-16T22:46:21.669Z,20.10
2022-08-16T22:48:50.136Z,20.00
2022-08-16T22:51:18.362Z,20.00
2022-08-16T22:53:45.074Z,19.90
2022-08-16T22:56:11.893Z,19.90
2022-08-16T22:58:39.354Z,19.90
2022-08-16T23:01:07.446Z,19.80
2022-08-16T23:03:35.114Z,19.80
2022-08-16T23:06:02.196Z,19.80
2022-08-16T23:08:38.268Z,19.80
2022-08-16T23:11:12.213Z,19.80
2022-08-16T23:13:51.474Z,19.70
2022-08-16T23:16:23.373Z,19.70
2022-08-16T23:18:59.739Z,19.60
2022-08-16T23:21:26.619Z,19.60
2022-08-16T23:23:53.899Z,19.60
2022-08-16T23:26:44.673Z,19.50
2022-08-16T23:29:07.544Z,19.50
2022-08-16T23:31:47.758Z,19.40
2022-08-16T23:34:14.589Z,19.40
2022-08-16T23:36:41.237Z,19.40
2022-08-16T23:39:08.077Z,19.40
2022-08-16T23:41:34.850Z,19.40
2022-08-16T23:44:01.942Z,19.30
2022-08-16T23:46:49.263Z,19.30
2022-08-16T23:49:59.064Z,19.30
2022-08-16T23:52:09.808Z,19.30
2022-08-16T23:54:36.610Z,19.30
2022-08-16T23:57:03.709Z,19.30
2022-08-16T23:59:30.377Z,19.20
